Rufus, Oregon
Current Conditions -  °F | °C
As of 6:22 PM on Saturday 20 Dec 2014 (Local Time) from KDLS Reporting Station
Light Rain Light Rain  
Wind Chill: 43°   Ceiling: 5000
Heat Index: 43°   Visibility: 3mi
Dew Point: 41°   Wind: 0mph
Humidity: 93%   Direction: NA
Pressure: 29.64"   Gusts: NA
Location:  45.69°N, 120.74°W
Report Text: KDLS 210222Z AUTO 00000KT 3SM -RA BR FEW006 OVC050 06/05 A2964 RMK AO2 P0004 T00610050
Loading
Personal Weather Stations






























Interactive Weather Map New forecast layout! Learn more

10-Day Weather Forecast

Advertisements
Track Severe Weather on mobile